sensor_id;sensor_type;location;lat;lon;timestamp;pressure;altitude;pressure_sealevel;temperature;humidity
82953;BME280;74888;40.196;44.560;2024-02-04T00:00:34;87439.75;;;3.91;52.38
82953;BME280;74888;40.196;44.560;2024-02-04T00:03:01;87437.00;;;3.94;52.29
82953;BME280;74888;40.196;44.560;2024-02-04T00:05:26;87446.09;;;3.90;52.25
82953;BME280;74888;40.196;44.560;2024-02-04T00:07:53;87435.72;;;3.90;52.51
82953;BME280;74888;40.196;44.560;2024-02-04T00:10:20;87435.16;;;3.86;52.43
82953;BME280;74888;40.196;44.560;2024-02-04T00:12:46;87425.81;;;3.79;52.44
82953;BME280;74888;40.196;44.560;2024-02-04T00:15:12;87433.28;;;3.86;52.62
82953;BME280;74888;40.196;44.560;2024-02-04T00:17:38;87430.25;;;3.88;52.83
82953;BME280;74888;40.196;44.560;2024-02-04T00:20:08;87420.19;;;3.81;52.73
82953;BME280;74888;40.196;44.560;2024-02-04T00:22:34;87420.34;;;3.77;52.82
82953;BME280;74888;40.196;44.560;2024-02-04T00:24:59;87419.31;;;3.84;53.38
82953;BME280;74888;40.196;44.560;2024-02-04T00:27:31;87415.00;;;3.81;52.32
82953;BME280;74888;40.196;44.560;2024-02-04T00:29:58;87401.75;;;3.78;52.49
82953;BME280;74888;40.196;44.560;2024-02-04T00:32:24;87410.50;;;3.81;52.30
82953;BME280;74888;40.196;44.560;2024-02-04T00:34:50;87398.38;;;3.87;52.36
82953;BME280;74888;40.196;44.560;2024-02-04T00:37:16;87393.69;;;3.67;53.06
82953;BME280;74888;40.196;44.560;2024-02-04T00:39:41;87391.84;;;3.35;53.76
82953;BME280;74888;40.196;44.560;2024-02-04T00:42:07;87381.97;;;3.07;53.21
82953;BME280;74888;40.196;44.560;2024-02-04T00:44:34;87391.97;;;2.81;56.08
82953;BME280;74888;40.196;44.560;2024-02-04T00:47:00;87392.34;;;3.07;54.22
82953;BME280;74888;40.196;44.560;2024-02-04T00:49:27;87383.47;;;3.31;54.32
82953;BME280;74888;40.196;44.560;2024-02-04T00:51:54;87382.88;;;3.36;53.53
82953;BME280;74888;40.196;44.560;2024-02-04T00:54:23;87378.50;;;3.51;53.17
82953;BME280;74888;40.196;44.560;2024-02-04T00:56:48;87375.53;;;3.67;53.18
82953;BME280;74888;40.196;44.560;2024-02-04T00:59:17;87379.44;;;3.72;52.50
82953;BME280;74888;40.196;44.560;2024-02-04T01:01:48;87384.78;;;3.68;52.92
82953;BME280;74888;40.196;44.560;2024-02-04T01:04:14;87371.16;;;3.50;52.53
82953;BME280;74888;40.196;44.560;2024-02-04T01:06:41;87386.28;;;3.51;52.74
82953;BME280;74888;40.196;44.560;2024-02-04T01:09:06;87385.69;;;3.56;52.84
82953;BME280;74888;40.196;44.560;2024-02-04T01:11:32;87385.47;;;3.45;53.04
82953;BME280;74888;40.196;44.560;2024-02-04T01:13:59;87377.78;;;3.51;52.42
82953;BME280;74888;40.196;44.560;2024-02-04T01:16:26;87381.09;;;3.51;52.64
82953;BME280;74888;40.196;44.560;2024-02-04T01:18:52;87382.81;;;3.54;52.78
82953;BME280;74888;40.196;44.560;2024-02-04T01:21:17;87384.97;;;3.56;52.61
82953;BME280;74888;40.196;44.560;2024-02-04T01:23:43;87379.66;;;3.50;52.66
82953;BME280;74888;40.196;44.560;2024-02-04T01:26:08;87374.31;;;3.54;53.65
82953;BME280;74888;40.196;44.560;2024-02-04T01:28:34;87373.75;;;3.50;53.36
82953;BME280;74888;40.196;44.560;2024-02-04T01:31:02;87370.44;;;3.49;53.26
82953;BME280;74888;40.196;44.560;2024-02-04T01:33:28;87364.66;;;3.54;52.91
82953;BME280;74888;40.196;44.560;2024-02-04T01:35:54;87365.22;;;3.58;52.51
82953;BME280;74888;40.196;44.560;2024-02-04T01:38:22;87371.34;;;3.70;52.77
82953;BME280;74888;40.196;44.560;2024-02-04T01:40:47;87373.38;;;3.66;52.51
82953;BME280;74888;40.196;44.560;2024-02-04T01:43:14;87367.81;;;3.58;52.64
82953;BME280;74888;40.196;44.560;2024-02-04T01:45:40;87356.25;;;3.59;52.47
82953;BME280;74888;40.196;44.560;2024-02-04T01:48:06;87363.16;;;3.62;52.20
82953;BME280;74888;40.196;44.560;2024-02-04T01:50:33;87353.75;;;3.41;53.41
82953;BME280;74888;40.196;44.560;2024-02-04T01:52:59;87346.56;;;3.36;52.63
82953;BME280;74888;40.196;44.560;2024-02-04T01:55:24;87345.69;;;3.39;52.77
82953;BME280;74888;40.196;44.560;2024-02-04T01:57:50;87345.03;;;3.30;52.54
82953;BME280;74888;40.196;44.560;2024-02-04T02:00:16;87355.41;;;3.30;52.73
82953;BME280;74888;40.196;44.560;2024-02-04T02:02:46;87355.41;;;3.21;53.17
82953;BME280;74888;40.196;44.560;2024-02-04T02:05:13;87354.75;;;3.02;53.62
82953;BME280;74888;40.196;44.560;2024-02-04T02:07:40;87363.41;;;3.08;53.58
82953;BME280;74888;40.196;44.560;2024-02-04T02:10:06;87358.75;;;3.21;52.51
82953;BME280;74888;40.196;44.560;2024-02-04T02:12:43;87353.84;;;3.14;53.69
82953;BME280;74888;40.196;44.560;2024-02-04T02:15:34;87356.16;;;3.21;53.29
82953;BME280;74888;40.196;44.560;2024-02-04T02:18:18;87364.38;;;3.20;52.60
82953;BME280;74888;40.196;44.560;2024-02-04T02:23:40;87372.09;;;3.29;53.53
82953;BME280;74888;40.196;44.560;2024-02-04T02:26:10;87370.66;;;3.28;53.54
82953;BME280;74888;40.196;44.560;2024-02-04T02:28:37;87374.69;;;3.29;53.49
82953;BME280;74888;40.196;44.560;2024-02-04T02:31:02;87371.69;;;3.30;53.46
82953;BME280;74888;40.196;44.560;2024-02-04T02:33:28;87380.88;;;3.40;54.05
82953;BME280;74888;40.196;44.560;2024-02-04T02:35:56;87371.50;;;3.34;53.74
82953;BME280;74888;40.196;44.560;2024-02-04T02:38:37;87357.69;;;3.28;54.05
82953;BME280;74888;40.196;44.560;2024-02-04T02:41:09;87347.63;;;3.30;53.20
82953;BME280;74888;40.196;44.560;2024-02-04T02:43:40;87340.66;;;3.03;54.13
82953;BME280;74888;40.196;44.560;2024-02-04T02:46:07;87347.56;;;3.06;54.06
82953;BME280;74888;40.196;44.560;2024-02-04T02:48:33;87341.34;;;3.04;53.68
82953;BME280;74888;40.196;44.560;2024-02-04T02:50:58;87350.28;;;3.03;54.90
82953;BME280;74888;40.196;44.560;2024-02-04T02:53:24;87347.72;;;2.94;54.19
82953;BME280;74888;40.196;44.560;2024-02-04T02:55:50;87348.75;;;2.87;54.84
82953;BME280;74888;40.196;44.560;2024-02-04T02:58:15;87351.34;;;2.87;54.38
82953;BME280;74888;40.196;44.560;2024-02-04T03:00:41;87347.31;;;2.86;55.05
82953;BME280;74888;40.196;44.560;2024-02-04T03:03:06;87344.53;;;2.99;54.70
82953;BME280;74888;40.196;44.560;2024-02-04T03:05:32;87352.28;;;3.17;54.27
82953;BME280;74888;40.196;44.560;2024-02-04T03:07:58;87355.69;;;3.32;53.48
82953;BME280;74888;40.196;44.560;2024-02-04T03:10:24;87353.31;;;3.43;52.79
82953;BME280;74888;40.196;44.560;2024-02-04T03:12:50;87347.97;;;3.46;53.29
82953;BME280;74888;40.196;44.560;2024-02-04T03:15:18;87351.16;;;3.41;53.49
82953;BME280;74888;40.196;44.560;2024-02-04T03:17:44;87350.34;;;3.35;53.08
82953;BME280;74888;40.196;44.560;2024-02-04T03:20:09;87352.94;;;3.35;52.91
82953;BME280;74888;40.196;44.560;2024-02-04T03:22:35;87350.16;;;3.39;52.87
82953;BME280;74888;40.196;44.560;2024-02-04T03:25:01;87353.03;;;3.41;53.36
82953;BME280;74888;40.196;44.560;2024-02-04T03:27:26;87353.03;;;3.41;53.35
82953;BME280;74888;40.196;44.560;2024-02-04T03:29:52;87347.31;;;3.37;52.57
82953;BME280;74888;40.196;44.560;2024-02-04T03:32:17;87359.38;;;3.40;53.78
82953;BME280;74888;40.196;44.560;2024-02-04T03:34:43;87363.56;;;3.37;53.24
82953;BME280;74888;40.196;44.560;2024-02-04T03:37:09;87364.28;;;3.38;53.66
82953;BME280;74888;40.196;44.560;2024-02-04T03:39:43;87368.75;;;3.37;53.95
82953;BME280;74888;40.196;44.560;2024-02-04T03:42:09;87365.16;;;3.35;53.09
82953;BME280;74888;40.196;44.560;2024-02-04T03:44:34;87354.94;;;3.31;53.61
82953;BME280;74888;40.196;44.560;2024-02-04T03:47:02;87354.97;;;3.22;53.89
82953;BME280;74888;40.196;44.560;2024-02-04T03:49:28;87356.44;;;3.23;53.85
82953;BME280;74888;40.196;44.560;2024-02-04T03:51:56;87352.34;;;3.31;54.21
82953;BME280;74888;40.196;44.560;2024-02-04T03:54:22;87354.50;;;3.42;53.32
82953;BME280;74888;40.196;44.560;2024-02-04T03:56:47;87345.66;;;3.48;53.62
82953;BME280;74888;40.196;44.560;2024-02-04T03:59:13;87339.09;;;3.38;52.85
82953;BME280;74888;40.196;44.560;2024-02-04T04:01:48;87339.56;;;3.28;53.82
82953;BME280;74888;40.196;44.560;2024-02-04T04:04:21;87350.09;;;3.15;53.48
82953;BME280;74888;40.196;44.560;2024-02-04T04:06:46;87362.50;;;3.11;54.01
82953;BME280;74888;40.196;44.560;2024-02-04T04:09:14;87352.00;;;3.15;53.92
82953;BME280;74888;40.196;44.560;2024-02-04T04:11:39;87361.09;;;3.01;54.35
82953;BME280;74888;40.196;44.560;2024-02-04T04:14:05;87364.44;;;2.84;53.95
82953;BME280;74888;40.196;44.560;2024-02-04T04:16:30;87364.19;;;2.73;54.52
82953;BME280;74888;40.196;44.560;2024-02-04T04:18:56;87361.03;;;2.69;54.07
82953;BME280;74888;40.196;44.560;2024-02-04T04:21:23;87367.47;;;2.82;53.51
82953;BME280;74888;40.196;44.560;2024-02-04T04:23:49;87367.91;;;2.81;54.34
82953;BME280;74888;40.196;44.560;2024-02-04T04:26:15;87366.50;;;2.80;53.93
82953;BME280;74888;40.196;44.560;2024-02-04T04:28:40;87370.81;;;2.56;54.12
82953;BME280;74888;40.196;44.560;2024-02-04T04:31:06;87369.81;;;2.08;56.54
82953;BME280;74888;40.196;44.560;2024-02-04T04:33:32;87364.66;;;1.99;56.78
82953;BME280;74888;40.196;44.560;2024-02-04T04:35:59;87362.06;;;1.99;56.82
82953;BME280;74888;40.196;44.560;2024-02-04T04:38:24;87354.16;;;2.11;55.98
82953;BME280;74888;40.196;44.560;2024-02-04T04:40:51;87366.22;;;2.41;55.10
82953;BME280;74888;40.196;44.560;2024-02-04T04:43:17;87372.41;;;2.35;55.64
82953;BME280;74888;40.196;44.560;2024-02-04T04:45:43;87373.56;;;2.16;55.12
82953;BME280;74888;40.196;44.560;2024-02-04T04:48:09;87364.66;;;2.08;55.31
82953;BME280;74888;40.196;44.560;2024-02-04T04:50:34;87366.53;;;2.25;55.15
82953;BME280;74888;40.196;44.560;2024-02-04T04:53:01;87374.00;;;2.60;54.75
82953;BME280;74888;40.196;44.560;2024-02-04T04:55:28;87383.72;;;2.92;53.94
82953;BME280;74888;40.196;44.560;2024-02-04T04:57:54;87369.75;;;2.98;52.88
82953;BME280;74888;40.196;44.560;2024-02-04T05:00:19;87380.13;;;2.89;52.96
82953;BME280;74888;40.196;44.560;2024-02-04T05:02:49;87373.81;;;2.72;53.37
82953;BME280;74888;40.196;44.560;2024-02-04T05:05:15;87378.03;;;2.42;53.81
82953;BME280;74888;40.196;44.560;2024-02-04T05:07:40;87372.56;;;2.40;54.74
82953;BME280;74888;40.196;44.560;2024-02-04T05:10:13;87369.81;;;2.62;53.41
82953;BME280;74888;40.196;44.560;2024-02-04T05:12:39;87371.53;;;2.83;53.43
82953;BME280;74888;40.196;44.560;2024-02-04T05:15:05;87374.91;;;3.07;52.72
82953;BME280;74888;40.196;44.560;2024-02-04T05:17:31;87368.25;;;3.15;52.92
82953;BME280;74888;40.196;44.560;2024-02-04T05:19:57;87365.28;;;2.99;52.18
82953;BME280;74888;40.196;44.560;2024-02-04T05:22:24;87371.66;;;2.80;52.74
82953;BME280;74888;40.196;44.560;2024-02-04T05:24:49;87370.06;;;2.73;52.79
82953;BME280;74888;40.196;44.560;2024-02-04T05:27:15;87370.94;;;2.79;54.23
82953;BME280;74888;40.196;44.560;2024-02-04T05:29:41;87368.94;;;2.74;53.27
82953;BME280;74888;40.196;44.560;2024-02-04T05:32:07;87371.81;;;2.58;53.72
82953;BME280;74888;40.196;44.560;2024-02-04T05:34:33;87375.16;;;2.40;53.40
82953;BME280;74888;40.196;44.560;2024-02-04T05:37:01;87370.81;;;2.46;54.09
82953;BME280;74888;40.196;44.560;2024-02-04T05:39:27;87363.91;;;2.62;54.11
82953;BME280;74888;40.196;44.560;2024-02-04T05:41:52;87375.09;;;2.95;52.52
82953;BME280;74888;40.196;44.560;2024-02-04T05:44:18;87363.97;;;3.03;52.71
82953;BME280;74888;40.196;44.560;2024-02-04T05:46:44;87369.69;;;3.16;51.94
82953;BME280;74888;40.196;44.560;2024-02-04T05:49:09;87357.69;;;3.28;51.87
82953;BME280;74888;40.196;44.560;2024-02-04T05:51:40;87349.34;;;3.24;51.49
82953;BME280;74888;40.196;44.560;2024-02-04T05:54:08;87354.53;;;3.24;51.92
82953;BME280;74888;40.196;44.560;2024-02-04T05:56:34;87356.75;;;3.16;51.99
82953;BME280;74888;40.196;44.560;2024-02-04T05:59:02;87354.75;;;3.02;51.62
82953;BME280;74888;40.196;44.560;2024-02-04T06:01:30;87350.75;;;2.92;52.29
82953;BME280;74888;40.196;44.560;2024-02-04T06:03:57;87342.13;;;2.86;52.02
82953;BME280;74888;40.196;44.560;2024-02-04T06:06:22;87346.75;;;2.82;52.10
82953;BME280;74888;40.196;44.560;2024-02-04T06:08:49;87350.84;;;2.47;52.19
82953;BME280;74888;40.196;44.560;2024-02-04T06:11:17;87347.22;;;2.44;52.86
82953;BME280;74888;40.196;44.560;2024-02-04T06:13:44;87350.09;;;2.56;52.98
82953;BME280;74888;40.196;44.560;2024-02-04T06:16:13;87342.59;;;2.76;52.63
82953;BME280;74888;40.196;44.560;2024-02-04T06:18:39;87334.66;;;2.88;51.17
82953;BME280;74888;40.196;44.560;2024-02-04T06:21:05;87328.00;;;2.96;51.63
82953;BME280;74888;40.196;44.560;2024-02-04T06:23:31;87345.63;;;3.25;50.99
82953;BME280;74888;40.196;44.560;2024-02-04T06:25:57;87344.66;;;3.46;50.84
82953;BME280;74888;40.196;44.560;2024-02-04T06:28:23;87343.56;;;3.61;50.22
82953;BME280;74888;40.196;44.560;2024-02-04T06:30:51;87351.94;;;3.65;49.34
82953;BME280;74888;40.196;44.560;2024-02-04T06:33:17;87332.31;;;3.88;48.86
82953;BME280;74888;40.196;44.560;2024-02-04T06:35:49;87342.78;;;3.79;49.41
82953;BME280;74888;40.196;44.560;2024-02-04T06:38:14;87360.19;;;3.88;49.15
82953;BME280;74888;40.196;44.560;2024-02-04T06:40:43;87365.84;;;3.77;48.94
82953;BME280;74888;40.196;44.560;2024-02-04T06:43:08;87356.19;;;3.78;49.44
82953;BME280;74888;40.196;44.560;2024-02-04T06:45:34;87349.56;;;3.76;49.12
82953;BME280;74888;40.196;44.560;2024-02-04T06:47:59;87345.56;;;3.66;49.79
82953;BME280;74888;40.196;44.560;2024-02-04T06:50:25;87343.50;;;3.47;50.26
82953;BME280;74888;40.196;44.560;2024-02-04T06:52:53;87355.00;;;3.55;50.03
82953;BME280;74888;40.196;44.560;2024-02-04T06:55:19;87358.69;;;3.63;50.12
82953;BME280;74888;40.196;44.560;2024-02-04T06:57:46;87355.19;;;3.75;49.98
82953;BME280;74888;40.196;44.560;2024-02-04T07:00:18;87349.59;;;4.15;50.19
82953;BME280;74888;40.196;44.560;2024-02-04T07:02:46;87358.53;;;4.37;48.18
82953;BME280;74888;40.196;44.560;2024-02-04T07:05:12;87346.56;;;4.40;48.73
82953;BME280;74888;40.196;44.560;2024-02-04T07:07:38;87355.00;;;4.64;48.74
82953;BME280;74888;40.196;44.560;2024-02-04T07:10:06;87350.63;;;4.70;47.89
82953;BME280;74888;40.196;44.560;2024-02-04T07:12:32;87347.41;;;4.89;48.03
82953;BME280;74888;40.196;44.560;2024-02-04T07:14:58;87345.97;;;5.18;47.38
82953;BME280;74888;40.196;44.560;2024-02-04T07:17:24;87344.06;;;5.33;46.80
82953;BME280;74888;40.196;44.560;2024-02-04T07:19:53;87340.22;;;4.99;45.94
82953;BME280;74888;40.196;44.560;2024-02-04T07:22:18;87347.47;;;4.66;47.08
82953;BME280;74888;40.196;44.560;2024-02-04T07:24:45;87341.81;;;4.53;46.69
82953;BME280;74888;40.196;44.560;2024-02-04T07:27:11;87341.47;;;4.60;47.72
82953;BME280;74888;40.196;44.560;2024-02-04T07:29:36;87333.13;;;4.56;46.32
82953;BME280;74888;40.196;44.560;2024-02-04T07:32:02;87331.59;;;4.35;47.34
82953;BME280;74888;40.196;44.560;2024-02-04T07:34:29;87331.03;;;4.31;47.72
82953;BME280;74888;40.196;44.560;2024-02-04T07:36:57;87334.75;;;4.53;47.77
82953;BME280;74888;40.196;44.560;2024-02-04T07:39:24;87325.88;;;4.89;47.47
82953;BME280;74888;40.196;44.560;2024-02-04T07:41:50;87333.25;;;5.34;46.67
82953;BME280;74888;40.196;44.560;2024-02-04T07:44:15;87330.19;;;5.70;45.79
82953;BME280;74888;40.196;44.560;2024-02-04T07:46:41;87336.50;;;5.98;45.61
82953;BME280;74888;40.196;44.560;2024-02-04T07:49:07;87339.00;;;6.28;45.99
82953;BME280;74888;40.196;44.560;2024-02-04T07:51:34;87328.63;;;6.53;45.70
82953;BME280;74888;40.196;44.560;2024-02-04T07:54:01;87331.03;;;6.57;43.80
82953;BME280;74888;40.196;44.560;2024-02-04T07:56:28;87331.59;;;6.66;45.06
82953;BME280;74888;40.196;44.560;2024-02-04T07:58:54;87339.41;;;6.86;44.26
82953;BME280;74888;40.196;44.560;2024-02-04T08:01:20;87335.97;;;7.00;45.33
82953;BME280;74888;40.196;44.560;2024-02-04T08:03:45;87333.84;;;6.99;46.00
82953;BME280;74888;40.196;44.560;2024-02-04T08:06:12;87342.78;;;6.92;46.36
82953;BME280;74888;40.196;44.560;2024-02-04T08:08:38;87338.69;;;6.86;46.04
82953;BME280;74888;40.196;44.560;2024-02-04T08:11:04;87332.03;;;6.85;46.44
82953;BME280;74888;40.196;44.560;2024-02-04T08:13:29;87334.25;;;6.92;47.09
82953;BME280;74888;40.196;44.560;2024-02-04T08:15:56;87332.91;;;7.02;46.28
82953;BME280;74888;40.196;44.560;2024-02-04T08:18:28;87332.31;;;7.12;45.84
82953;BME280;74888;40.196;44.560;2024-02-04T08:20:54;87333.38;;;7.26;46.07
82953;BME280;74888;40.196;44.560;2024-02-04T08:23:22;87329.09;;;7.28;45.52
82953;BME280;74888;40.196;44.560;2024-02-04T08:25:48;87319.94;;;7.38;45.31
82953;BME280;74888;40.196;44.560;2024-02-04T08:28:24;87317.38;;;7.44;44.75
82953;BME280;74888;40.196;44.560;2024-02-04T08:30:50;87316.47;;;7.53;46.35
82953;BME280;74888;40.196;44.560;2024-02-04T08:33:16;87322.22;;;7.57;45.39
82953;BME280;74888;40.196;44.560;2024-02-04T08:35:41;87320.34;;;7.63;45.32
82953;BME280;74888;40.196;44.560;2024-02-04T08:38:07;87318.72;;;7.65;45.01
82953;BME280;74888;40.196;44.560;2024-02-04T08:40:33;87313.97;;;7.69;45.04
82953;BME280;74888;40.196;44.560;2024-02-04T08:42:58;87310.00;;;7.74;45.59
82953;BME280;74888;40.196;44.560;2024-02-04T08:45:24;87311.31;;;7.64;45.42
82953;BME280;74888;40.196;44.560;2024-02-04T08:47:52;87316.22;;;7.50;45.71
82953;BME280;74888;40.196;44.560;2024-02-04T08:50:17;87311.56;;;7.29;45.34
82953;BME280;74888;40.196;44.560;2024-02-04T08:52:43;87300.94;;;7.07;46.08
82953;BME280;74888;40.196;44.560;2024-02-04T08:55:10;87299.72;;;7.02;46.67
82953;BME280;74888;40.196;44.560;2024-02-04T08:57:35;87296.91;;;7.06;46.52
82953;BME280;74888;40.196;44.560;2024-02-04T09:00:01;87293.78;;;7.02;45.64
82953;BME280;74888;40.196;44.560;2024-02-04T09:02:27;87293.44;;;6.89;46.06
82953;BME280;74888;40.196;44.560;2024-02-04T09:04:53;87292.28;;;6.95;46.50
82953;BME280;74888;40.196;44.560;2024-02-04T09:07:19;87288.94;;;6.89;46.67
82953;BME280;74888;40.196;44.560;2024-02-04T09:09:45;87277.53;;;6.87;46.32
82953;BME280;74888;40.196;44.560;2024-02-04T09:12:11;87273.03;;;6.87;46.67
82953;BME280;74888;40.196;44.560;2024-02-04T09:14:38;87272.16;;;6.96;46.30
82953;BME280;74888;40.196;44.560;2024-02-04T09:17:06;87275.00;;;6.98;46.27
82953;BME280;74888;40.196;44.560;2024-02-04T09:19:32;87276.97;;;7.03;46.27
82953;BME280;74888;40.196;44.560;2024-02-04T09:21:58;87271.81;;;7.14;46.12
82953;BME280;74888;40.196;44.560;2024-02-04T09:24:28;87271.16;;;7.19;46.08
82953;BME280;74888;40.196;44.560;2024-02-04T09:26:54;87264.09;;;7.30;45.71
82953;BME280;74888;40.196;44.560;2024-02-04T09:29:22;87269.69;;;7.49;46.69
82953;BME280;74888;40.196;44.560;2024-02-04T09:31:48;87266.19;;;7.58;46.11
82953;BME280;74888;40.196;44.560;2024-02-04T09:34:16;87259.34;;;7.60;45.23
82953;BME280;74888;40.196;44.560;2024-02-04T09:36:43;87254.28;;;7.51;45.71
82953;BME280;74888;40.196;44.560;2024-02-04T09:39:09;87245.25;;;7.46;45.12
82953;BME280;74888;40.196;44.560;2024-02-04T09:41:35;87238.19;;;7.58;45.90
82953;BME280;74888;40.196;44.560;2024-02-04T09:44:02;87241.94;;;7.52;46.49
82953;BME280;74888;40.196;44.560;2024-02-04T09:46:29;87237.41;;;7.52;46.14
82953;BME280;74888;40.196;44.560;2024-02-04T09:48:55;87235.09;;;7.60;45.49
82953;BME280;74888;40.196;44.560;2024-02-04T09:51:22;87227.53;;;7.67;45.39
82953;BME280;74888;40.196;44.560;2024-02-04T09:53:52;87217.84;;;7.73;45.36
82953;BME280;74888;40.196;44.560;2024-02-04T09:56:22;87215.00;;;7.77;45.61
82953;BME280;74888;40.196;44.560;2024-02-04T09:58:48;87209.53;;;7.75;45.27
82953;BME280;74888;40.196;44.560;2024-02-04T10:01:16;87215.28;;;7.79;44.97
82953;BME280;74888;40.196;44.560;2024-02-04T10:03:44;87201.47;;;7.78;44.35
82953;BME280;74888;40.196;44.560;2024-02-04T10:06:09;87204.34;;;7.86;44.45
82953;BME280;74888;40.196;44.560;2024-02-04T10:08:36;87210.56;;;7.88;45.38
82953;BME280;74888;40.196;44.560;2024-02-04T10:11:03;87210.81;;;7.96;44.60
82953;BME280;74888;40.196;44.560;2024-02-04T10:13:29;87200.88;;;8.11;44.97
82953;BME280;74888;40.196;44.560;2024-02-04T10:15:56;87196.22;;;8.26;44.40
82953;BME280;74888;40.196;44.560;2024-02-04T10:18:22;87197.41;;;8.25;43.73
82953;BME280;74888;40.196;44.560;2024-02-04T10:20:47;87195.94;;;8.18;44.17
82953;BME280;74888;40.196;44.560;2024-02-04T10:23:14;87189.72;;;8.16;44.37
82953;BME280;74888;40.196;44.560;2024-02-04T10:25:41;87179.97;;;8.11;44.07
82953;BME280;74888;40.196;44.560;2024-02-04T10:28:07;87183.81;;;8.21;44.25
82953;BME280;74888;40.196;44.560;2024-02-04T10:30:38;87176.03;;;8.37;43.26
82953;BME280;74888;40.196;44.560;2024-02-04T10:33:04;87173.91;;;8.41;43.47
82953;BME280;74888;40.196;44.560;2024-02-04T10:35:32;87165.81;;;8.34;43.02
82953;BME280;74888;40.196;44.560;2024-02-04T10:37:57;87186.28;;;8.52;43.02
82953;BME280;74888;40.196;44.560;2024-02-04T10:40:23;87183.22;;;8.64;43.46
82953;BME280;74888;40.196;44.560;2024-02-04T10:42:50;87182.72;;;8.71;43.21
82953;BME280;74888;40.196;44.560;2024-02-04T10:45:29;87169.91;;;8.79;42.15
82953;BME280;74888;40.196;44.560;2024-02-04T10:47:57;87169.44;;;8.81;43.44
82953;BME280;74888;40.196;44.560;2024-02-04T10:50:26;87178.97;;;8.95;43.49
82953;BME280;74888;40.196;44.560;2024-02-04T10:52:57;87181.56;;;8.95;43.00
82953;BME280;74888;40.196;44.560;2024-02-04T10:55:27;87173.22;;;8.85;42.59
82953;BME280;74888;40.196;44.560;2024-02-04T10:57:56;87171.56;;;8.77;43.16
82953;BME280;74888;40.196;44.560;2024-02-04T11:00:22;87163.97;;;8.73;42.51
82953;BME280;74888;40.196;44.560;2024-02-04T11:02:49;87166.56;;;8.84;42.63
82953;BME280;74888;40.196;44.560;2024-02-04T11:05:17;87169.91;;;8.96;42.76
82953;BME280;74888;40.196;44.560;2024-02-04T11:07:45;87164.66;;;8.90;42.76
82953;BME280;74888;40.196;44.560;2024-02-04T11:10:11;87170.59;;;8.85;42.93
82953;BME280;74888;40.196;44.560;2024-02-04T11:12:41;87174.19;;;8.65;42.62
82953;BME280;74888;40.196;44.560;2024-02-04T11:15:10;87166.78;;;8.42;43.35
82953;BME280;74888;40.196;44.560;2024-02-04T11:18:14;87168.41;;;8.39;43.77
82953;BME280;74888;40.196;44.560;2024-02-04T11:20:56;87174.16;;;8.43;42.84
82953;BME280;74888;40.196;44.560;2024-02-04T11:23:50;87166.78;;;8.53;43.88
82953;BME280;74888;40.196;44.560;2024-02-04T11:26:21;87168.94;;;8.65;43.10
82953;BME280;74888;40.196;44.560;2024-02-04T11:28:49;87165.63;;;8.70;43.30
82953;BME280;74888;40.196;44.560;2024-02-04T11:31:20;87163.47;;;8.86;43.05
82953;BME280;74888;40.196;44.560;2024-02-04T11:33:46;87151.81;;;8.92;42.79
82953;BME280;74888;40.196;44.560;2024-02-04T11:36:16;87158.97;;;8.92;42.59
82953;BME280;74888;40.196;44.560;2024-02-04T11:38:48;87159.69;;;8.76;42.54
82953;BME280;74888;40.196;44.560;2024-02-04T11:41:22;87156.59;;;8.66;42.97
82953;BME280;74888;40.196;44.560;2024-02-04T11:43:55;87157.28;;;8.55;42.67
82953;BME280;74888;40.196;44.560;2024-02-04T11:46:21;87159.91;;;8.55;42.69
82953;BME280;74888;40.196;44.560;2024-02-04T11:48:54;87154.91;;;8.57;42.70
82953;BME280;74888;40.196;44.560;2024-02-04T11:51:24;87162.53;;;8.61;43.22
82953;BME280;74888;40.196;44.560;2024-02-04T11:53:53;87156.56;;;8.55;43.23
82953;BME280;74888;40.196;44.560;2024-02-04T11:56:20;87161.09;;;8.49;43.37
82953;BME280;74888;40.196;44.560;2024-02-04T11:58:46;87168.00;;;8.57;43.20
82953;BME280;74888;40.196;44.560;2024-02-04T12:01:12;87152.28;;;8.68;43.07
82953;BME280;74888;40.196;44.560;2024-02-04T12:03:38;87154.91;;;8.74;42.76
82953;BME280;74888;40.196;44.560;2024-02-04T12:06:04;87154.22;;;8.79;43.28
82953;BME280;74888;40.196;44.560;2024-02-04T12:08:32;87156.34;;;8.81;43.11
82953;BME280;74888;40.196;44.560;2024-02-04T12:11:00;87164.69;;;8.79;42.97
82953;BME280;74888;40.196;44.560;2024-02-04T12:13:28;87167.75;;;8.66;43.08
82953;BME280;74888;40.196;44.560;2024-02-04T12:15:59;87159.66;;;8.59;43.29
82953;BME280;74888;40.196;44.560;2024-02-04T12:18:25;87163.22;;;8.50;43.37
82953;BME280;74888;40.196;44.560;2024-02-04T12:20:51;87153.44;;;8.34;42.21
82953;BME280;74888;40.196;44.560;2024-02-04T12:23:17;87152.25;;;8.30;43.50
82953;BME280;74888;40.196;44.560;2024-02-04T12:25:48;87154.91;;;8.41;43.19
82953;BME280;74888;40.196;44.560;2024-02-04T12:28:14;87145.38;;;8.43;43.08
82953;BME280;74888;40.196;44.560;2024-02-04T12:30:40;87141.31;;;8.31;44.27
82953;BME280;74888;40.196;44.560;2024-02-04T12:33:06;87147.22;;;8.21;43.47
82953;BME280;74888;40.196;44.560;2024-02-04T12:35:32;87144.84;;;8.17;43.49
82953;BME280;74888;40.196;44.560;2024-02-04T12:38:00;87146.75;;;8.17;44.17
82953;BME280;74888;40.196;44.560;2024-02-04T12:40:30;87146.25;;;8.18;44.35
82953;BME280;74888;40.196;44.560;2024-02-04T12:42:58;87150.28;;;8.19;44.33
82953;BME280;74888;40.196;44.560;2024-02-04T12:45:30;87149.56;;;8.08;43.88
82953;BME280;74888;40.196;44.560;2024-02-04T12:47:57;87163.31;;;7.97;44.23
82953;BME280;74888;40.196;44.560;2024-02-04T12:50:24;87160.66;;;7.86;44.43
82953;BME280;74888;40.196;44.560;2024-02-04T12:53:22;87158.53;;;7.85;44.09
82953;BME280;74888;40.196;44.560;2024-02-04T12:55:46;87159.66;;;7.73;45.06
82953;BME280;74888;40.196;44.560;2024-02-04T12:58:13;87162.25;;;7.67;45.38
82953;BME280;74888;40.196;44.560;2024-02-04T13:00:42;87161.97;;;7.60;44.75
82953;BME280;74888;40.196;44.560;2024-02-04T13:03:14;87151.69;;;7.45;44.60